Time;durP1;ratioP1;P1;durP2;ratioP2;P2;SDS_P1;SDS_P2;PMS_P1;PMS_P2;Temp;Humidity;BMP_temperature;BMP_pressure;BME280_temperature;BME280_humidity;BME280_pressure;Samples;Min_cycle;Max_cycle;Signal;HPM_P1;HPM_P2
2022/11/07 00:01:18;;;;;;;16.85;11.77;;;14.00;76.00;;;;;;5051182;28;20025;-82
2022/11/07 00:03:44;;;;;;;15.40;11.20;;;13.90;76.70;;;;;;5042780;28;20131;-82
2022/11/07 00:06:10;;;;;;;20.00;11.75;;;15.00;91.30;;;;;;5046876;28;20466;-81
2022/11/07 00:08:36;;;;;;;17.45;11.25;;;13.70;78.40;;;;;;5031459;28;20452;-82
2022/11/07 00:11:02;;;;;;;17.15;11.55;;;13.70;76.80;;;;;;5046975;28;20033;-83
2022/11/07 00:13:29;;;;;;;17.35;10.77;;;13.70;77.00;;;;;;5046741;28;20098;-82
2022/11/07 00:16:02;;;;;;;18.17;11.85;;;13.60;77.20;;;;;;5047919;28;20035;-81
2022/11/07 00:18:28;;;;;;;19.10;12.88;;;13.40;78.30;;;;;;5062559;28;20052;-81
2022/11/07 00:20:54;;;;;;;18.05;11.07;;;13.30;78.90;;;;;;5043602;28;20053;-82
2022/11/07 00:23:20;;;;;;;16.42;11.40;;;13.40;78.30;;;;;;5046186;28;20021;-82
2022/11/07 00:25:46;;;;;;;14.50;9.77;;;13.30;78.00;;;;;;5040962;28;20060;-81
2022/11/07 00:28:11;;;;;;;22.25;10.07;;;13.40;77.80;;;;;;5047432;28;20024;-81
2022/11/07 00:30:38;;;;;;;15.02;10.05;;;13.40;77.80;;;;;;5050120;28;20488;-81
2022/11/07 00:33:04;;;;;;;16.42;11.20;;;;;;;;;;5032534;28;20038;-81
2022/11/07 00:35:30;;;;;;;14.40;10.35;;;13.60;77.30;;;;;;5041988;28;20032;-81
2022/11/07 00:37:56;;;;;;;15.15;9.80;;;13.70;77.10;;;;;;5046277;28;20040;-81
2022/11/07 00:40:22;;;;;;;13.38;9.50;;;13.80;76.50;;;;;;5053003;28;20044;-82
2022/11/07 00:42:47;;;;;;;13.20;8.80;;;13.80;76.20;;;;;;5047343;28;20033;-82
2022/11/07 00:45:13;;;;;;;13.35;9.07;;;13.80;76.20;;;;;;5049546;28;20030;-81
2022/11/07 00:47:39;;;;;;;12.18;8.57;;;13.80;75.70;;;;;;5032820;28;20397;-81
2022/11/07 00:50:05;;;;;;;11.68;7.95;;;13.90;75.40;;;;;;5044826;28;20030;-82
2022/11/07 00:52:32;;;;;;;11.07;7.88;;;;;;;;;;5044517;28;20083;-83
2022/11/07 00:54:57;;;;;;;11.98;7.85;;;14.00;74.70;;;;;;5035667;28;20048;-83
2022/11/07 00:57:23;;;;;;;11.73;7.35;;;;;;;;;;5035787;28;20025;-83
2022/11/07 00:59:49;;;;;;;9.13;7.10;;;14.00;74.30;;;;;;5046633;28;20388;-82
2022/11/07 01:02:14;;;;;;;14.70;8.05;;;13.90;74.10;;;;;;5054676;28;20029;-83
2022/11/07 01:07:24;;;;;;;11.80;8.32;;;13.90;74.30;;;;;;5041286;28;20037;-85
2022/11/07 01:09:50;;;;;;;11.27;8.00;;;13.80;74.10;;;;;;5044964;28;20033;-84
2022/11/07 01:12:16;;;;;;;10.15;7.53;;;14.00;74.60;;;;;;5049989;28;20032;-84
2022/11/07 01:14:41;;;;;;;11.20;8.35;;;14.00;74.60;;;;;;5038801;28;20025;-78
2022/11/07 01:17:07;;;;;;;12.02;8.30;;;13.90;74.40;;;;;;5044508;28;20108;-77
2022/11/07 01:19:33;;;;;;;11.35;7.60;;;13.80;74.50;;;;;;5053865;28;20025;-77
2022/11/07 01:21:58;;;;;;;11.00;6.97;;;13.80;74.10;;;;;;5043007;28;20470;-76
2022/11/07 01:24:24;;;;;;;12.65;7.70;;;13.70;74.20;;;;;;5053016;28;20105;-76
2022/11/07 01:26:50;;;;;;;11.52;8.43;;;13.70;74.30;;;;;;5036169;28;20025;-78
2022/11/07 01:29:18;;;;;;;11.57;7.88;;;13.70;74.30;;;;;;5051158;28;20029;-77
2022/11/07 01:31:44;;;;;;;11.75;8.52;;;13.70;76.10;;;;;;5044570;28;20077;-77
2022/11/07 01:34:10;;;;;;;12.38;7.78;;;13.70;74.20;;;;;;5046408;28;20052;-76
2022/11/07 01:36:36;;;;;;;10.27;7.00;;;13.60;74.40;;;;;;5041413;28;20378;-77
2022/11/07 01:39:03;;;;;;;13.00;7.55;;;13.60;74.60;;;;;;5052535;28;20025;-77
2022/11/07 01:41:30;;;;;;;11.10;7.90;;;;;;;;;;5045920;28;20606;-76
2022/11/07 01:44:03;;;;;;;10.55;7.90;;;13.70;74.80;;;;;;5052979;28;20503;-75
2022/11/07 01:46:30;;;;;;;9.18;6.95;;;13.70;74.60;;;;;;5037852;28;20108;-75
2022/11/07 01:49:17;;;;;;;10.38;7.72;;;13.80;74.40;;;;;;5043583;28;20075;-75
2022/11/07 01:52:00;;;;;;;10.88;7.10;;;13.80;74.10;;;;;;5053086;28;20191;-81
2022/11/07 01:54:34;;;;;;;11.23;7.53;;;13.80;74.50;;;;;;5050274;28;20033;-81
2022/11/07 01:57:08;;;;;;;10.50;7.53;;;13.80;74.40;;;;;;5036455;28;20020;-80
2022/11/07 01:59:36;;;;;;;9.15;6.88;;;13.80;74.50;;;;;;5030966;28;20072;-80
2022/11/07 02:02:03;;;;;;;10.68;7.22;;;13.80;74.20;;;;;;5046400;28;20033;-80
2022/11/07 02:04:30;;;;;;;9.73;7.05;;;13.80;74.30;;;;;;5034207;28;20108;-80
2022/11/07 02:07:03;;;;;;;10.82;7.38;;;13.80;74.30;;;;;;5050710;28;20022;-80
2022/11/07 02:09:29;;;;;;;11.70;7.30;;;13.80;74.70;;;;;;5042089;28;20040;-79
2022/11/07 02:11:59;;;;;;;13.30;8.05;;;13.80;74.80;;;;;;5040844;28;20022;-79
2022/11/07 02:14:26;;;;;;;12.80;7.45;;;;;;;;;;5041618;28;20021;-80
2022/11/07 02:16:52;;;;;;;10.20;7.85;;;;;;;;;;5049476;28;20048;-80
2022/11/07 02:19:31;;;;;;;10.93;7.65;;;13.80;78.60;;;;;;5041558;28;20376;-80
2022/11/07 02:22:32;;;;;;;10.40;7.65;;;13.80;74.70;;;;;;5034678;28;20363;-80
2022/11/07 02:25:02;;;;;;;9.55;7.10;;;13.70;75.00;;;;;;5034123;28;20148;-77
2022/11/07 02:27:30;;;;;;;11.90;6.83;;;13.60;75.10;;;;;;5043172;28;20044;-77
2022/11/07 02:30:02;;;;;;;12.63;6.93;;;13.70;75.50;;;;;;5051797;28;20037;-79
2022/11/07 02:32:28;;;;;;;13.13;8.20;;;13.60;75.50;;;;;;5039216;28;20052;-79
2022/11/07 02:34:57;;;;;;;13.55;7.35;;;13.40;75.40;;;;;;5050014;28;20096;-77
2022/11/07 02:37:28;;;;;;;9.43;6.60;;;13.30;75.90;;;;;;5036442;28;20355;-78
2022/11/07 02:39:54;;;;;;;9.43;6.63;;;13.20;75.90;;;;;;5045102;28;20503;-79
2022/11/07 02:42:20;;;;;;;9.20;6.90;;;13.20;75.90;;;;;;5042259;28;20072;-79
2022/11/07 02:44:46;;;;;;;10.85;7.22;;;13.20;75.90;;;;;;5042188;28;20481;-77
2022/11/07 02:47:12;;;;;;;8.65;6.57;;;13.20;75.90;;;;;;5051036;28;20039;-79
2022/11/07 02:49:38;;;;;;;11.52;6.88;;;13.20;75.80;;;;;;5047416;28;20385;-79
2022/11/07 02:52:03;;;;;;;10.15;7.22;;;13.10;75.80;;;;;;5043046;28;20104;-79
2022/11/07 02:54:29;;;;;;;8.77;6.18;;;13.00;75.90;;;;;;5036963;28;20557;-77
2022/11/07 02:56:55;;;;;;;9.55;7.18;;;12.90;76.20;;;;;;5049544;28;20113;-77
2022/11/07 02:59:20;;;;;;;10.48;7.50;;;12.80;76.60;;;;;;5038306;28;20115;-77
2022/11/07 03:01:47;;;;;;;10.65;7.50;;;12.70;76.70;;;;;;5050887;28;20480;-78
2022/11/07 03:04:13;;;;;;;8.88;6.30;;;12.70;77.00;;;;;;5046397;28;20060;-77
2022/11/07 03:06:39;;;;;;;11.85;7.50;;;12.70;77.20;;;;;;5051028;28;20047;-77
2022/11/07 03:09:04;;;;;;;11.48;8.43;;;12.40;78.50;;;;;;5034243;28;20021;-82
2022/11/07 03:11:30;;;;;;;10.88;7.45;;;12.30;78.60;;;;;;5043673;28;20371;-84
2022/11/07 03:13:55;;;;;;;11.07;7.70;;;12.40;78.30;;;;;;5043851;28;20063;-84
2022/11/07 03:16:21;;;;;;;10.27;7.85;;;12.30;78.90;;;;;;5049071;28;20044;-85
2022/11/07 03:18:47;;;;;;;11.25;8.40;;;12.30;79.90;;;;;;5035079;28;20041;-85
2022/11/07 03:21:13;;;;;;;11.20;7.32;;;12.10;79.20;;;;;;5036076;28;20041;-84
2022/11/07 03:23:39;;;;;;;9.52;7.25;;;12.20;79.10;;;;;;5031332;28;20069;-83
2022/11/07 03:26:05;;;;;;;11.05;7.90;;;12.20;78.90;;;;;;5047312;28;20159;-84
2022/11/07 03:28:31;;;;;;;11.27;7.43;;;12.30;79.10;;;;;;5035251;28;20032;-84
2022/11/07 03:31:02;;;;;;;9.75;7.32;;;12.30;79.00;;;;;;5035957;28;20059;-82
2022/11/07 03:33:29;;;;;;;12.63;7.20;;;12.30;78.70;;;;;;5032595;28;20036;-82
2022/11/07 03:35:54;;;;;;;13.13;7.35;;;12.30;78.70;;;;;;5034097;28;20033;-82
2022/11/07 03:38:21;;;;;;;13.35;7.13;;;;;;;;;;5046589;28;20033;-80
2022/11/07 03:40:47;;;;;;;11.15;6.97;;;12.40;78.50;;;;;;5044684;28;20051;-80
2022/11/07 03:43:12;;;;;;;10.25;7.22;;;12.40;78.60;;;;;;5037006;28;21011;-79
2022/11/07 03:45:38;;;;;;;12.80;7.55;;;12.50;78.70;;;;;;5048373;28;20029;-78
2022/11/07 03:48:04;;;;;;;11.10;7.20;;;12.60;78.70;;;;;;5040916;28;20068;-78
2022/11/07 03:50:30;;;;;;;10.05;7.20;;;12.60;78.50;;;;;;5036987;28;20103;-79
2022/11/07 03:52:56;;;;;;;10.75;7.15;;;12.70;78.20;;;;;;5037748;28;20037;-78
2022/11/07 03:55:22;;;;;;;9.82;6.95;;;12.70;78.10;;;;;;5040618;28;20086;-78
2022/11/07 03:57:47;;;;;;;9.45;6.68;;;12.80;78.10;;;;;;5042897;28;20033;-79
2022/11/07 04:00:14;;;;;;;10.13;7.13;;;12.80;77.80;;;;;;5033951;28;20017;-78
2022/11/07 04:02:41;;;;;;;9.02;6.95;;;12.80;77.60;;;;;;5031894;28;20088;-79
2022/11/07 04:05:07;;;;;;;9.95;6.70;;;12.90;77.40;;;;;;5045999;28;20083;-79
2022/11/07 04:07:33;;;;;;;8.95;6.57;;;13.00;77.40;;;;;;5039239;28;20021;-80
2022/11/07 04:09:59;;;;;;;9.50;6.88;;;12.90;77.40;;;;;;5041325;28;20044;-80
2022/11/07 04:17:54;;;;;;;10.90;6.30;;;12.90;77.20;;;;;;5044203;28;20094;-80
2022/11/07 04:20:23;;;;;;;9.70;6.95;;;;;;;;;;5055375;28;20024;-83
2022/11/07 04:22:49;;;;;;;8.93;6.35;;;;;;;;;;5040275;28;20400;-83
2022/11/07 04:25:17;;;;;;;9.90;6.75;;;12.80;77.10;;;;;;5035290;28;20029;-83
2022/11/07 04:27:42;;;;;;;9.43;6.32;;;12.60;77.20;;;;;;5036433;28;20029;-81
2022/11/07 04:30:22;;;;;;;11.02;7.32;;;12.60;77.30;;;;;;5036261;28;20105;-82
2022/11/07 04:32:56;;;;;;;11.15;7.65;;;12.50;77.60;;;;;;5040825;28;20144;-83
2022/11/07 04:35:28;;;;;;;10.52;6.95;;;12.50;78.20;;;;;;5022032;28;20057;-81
2022/11/07 04:37:54;;;;;;;10.10;6.70;;;12.40;77.90;;;;;;5046432;28;20408;-81
2022/11/07 04:40:21;;;;;;;9.73;7.45;;;12.40;78.20;;;;;;5042638;28;20101;-82
2022/11/07 04:42:47;;;;;;;12.23;7.13;;;12.30;78.10;;;;;;5039102;28;20033;-81
2022/11/07 04:45:14;;;;;;;11.48;7.20;;;12.30;78.20;;;;;;5035790;28;20259;-82
2022/11/07 04:47:39;;;;;;;9.57;7.00;;;12.30;78.20;;;;;;5039428;28;20049;-82
2022/11/07 04:50:07;;;;;;;8.38;6.97;;;12.30;78.20;;;;;;5036705;28;20033;-82
2022/11/07 04:52:33;;;;;;;10.32;7.30;;;12.40;78.40;;;;;;5036469;28;20040;-83
2022/11/07 04:54:59;;;;;;;9.02;6.45;;;12.40;78.40;;;;;;5037596;28;20022;-82
2022/11/07 04:57:25;;;;;;;7.53;6.10;;;12.40;78.20;;;;;;5044677;28;20037;-81
2022/11/07 04:59:50;;;;;;;11.18;6.72;;;12.40;78.30;;;;;;5035427;28;20104;-81
2022/11/07 05:02:16;;;;;;;9.55;6.75;;;12.40;78.30;;;;;;5039220;28;20092;-82
2022/11/07 05:04:42;;;;;;;10.73;7.60;;;12.40;78.30;;;;;;5034454;28;20095;-81
2022/11/07 05:07:08;;;;;;;13.10;6.72;;;12.40;78.20;;;;;;5038894;28;20037;-82
2022/11/07 05:09:35;;;;;;;11.55;7.47;;;12.30;78.40;;;;;;5040571;28;20028;-81
2022/11/07 05:12:01;;;;;;;8.68;6.72;;;12.20;78.50;;;;;;5049636;28;20028;-82
2022/11/07 05:14:29;;;;;;;9.02;6.60;;;12.20;78.50;;;;;;5046995;28;20025;-81
2022/11/07 05:16:56;;;;;;;9.85;6.85;;;12.10;78.50;;;;;;5036414;28;20649;-82
2022/11/07 05:19:22;;;;;;;10.75;7.72;;;12.10;78.50;;;;;;5055093;28;20036;-82
2022/11/07 05:23:10;;;;;;;11.32;6.78;;;12.10;79.20;;;;;;5044050;28;20044;-83
2022/11/07 05:24:33;;;;;;;11.43;7.45;;;11.80;79.60;;;;;;5035711;28;20404;-82
2022/11/07 05:26:59;;;;;;;11.93;8.05;;;11.70;79.80;;;;;;5051044;28;20033;-81
2022/11/07 05:29:25;;;;;;;11.07;7.35;;;11.50;80.70;;;;;;5039145;28;20078;-80
2022/11/07 05:31:50;;;;;;;9.00;6.50;;;11.10;81.80;;;;;;5042634;28;20060;-81
2022/11/07 05:34:16;;;;;;;17.33;7.45;;;11.20;81.10;;;;;;5044795;28;20033;-81
2022/11/07 05:36:42;;;;;;;8.30;6.15;;;11.30;81.00;;;;;;5037721;28;20037;-81
2022/11/07 05:39:07;;;;;;;10.60;6.40;;;11.40;80.70;;;;;;5050606;28;20033;-81
2022/11/07 05:41:35;;;;;;;8.55;6.38;;;11.50;80.50;;;;;;5033631;28;20381;-81
2022/11/07 05:44:01;;;;;;;9.98;6.47;;;11.50;80.40;;;;;;5043146;28;20369;-80
2022/11/07 05:46:27;;;;;;;8.90;6.90;;;11.50;80.20;;;;;;5053068;28;20033;-80
2022/11/07 05:48:52;;;;;;;9.95;6.10;;;11.50;80.00;;;;;;5036893;28;20116;-81
2022/11/07 05:51:18;;;;;;;10.18;5.97;;;11.60;79.90;;;;;;5043503;28;20087;-81
2022/11/07 05:53:44;;;;;;;8.27;5.82;;;11.60;79.80;;;;;;5042384;28;20029;-81
2022/11/07 05:56:09;;;;;;;8.85;5.82;;;11.60;79.80;;;;;;5034889;28;20413;-80
2022/11/07 05:58:35;;;;;;;8.32;6.07;;;11.60;79.70;;;;;;5039108;28;20040;-81
2022/11/07 06:01:05;;;;;;;9.75;5.40;;;11.60;79.70;;;;;;5048495;28;20029;-80
2022/11/07 06:03:31;;;;;;;8.35;6.00;;;11.60;79.50;;;;;;5044074;28;20116;-73
2022/11/07 06:05:57;;;;;;;7.53;5.70;;;11.70;79.40;;;;;;5033704;28;20422;-73
2022/11/07 06:08:22;;;;;;;7.78;5.13;;;11.70;79.30;;;;;;5074262;22;20128;-80
2022/11/07 06:10:48;;;;;;;7.78;5.97;;;11.70;79.30;;;;;;5051483;28;20121;-79
2022/11/07 06:13:15;;;;;;;7.07;5.32;;;11.70;79.70;;;;;;5037850;28;20021;-80
2022/11/07 06:15:42;;;;;;;8.50;6.43;;;11.80;80.00;;;;;;5051543;28;20082;-80
2022/11/07 06:18:15;;;;;;;9.73;6.03;;;11.90;79.20;;;;;;5053668;28;20021;-80
2022/11/07 06:20:41;;;;;;;7.70;5.47;;;11.90;79.10;;;;;;5052801;28;20029;-82
2022/11/07 06:23:07;;;;;;;9.05;5.65;;;12.00;78.80;;;;;;5053582;28;20563;-85
2022/11/07 06:25:34;;;;;;;6.00;4.88;;;12.10;89.70;;;;;;5050464;28;20029;-82
2022/11/07 06:28:35;;;;;;;6.28;4.47;;;12.10;78.10;;;;;;5052603;28;20461;-83
2022/11/07 06:31:24;;;;;;;8.45;4.82;;;12.20;78.10;;;;;;5064859;28;20021;-81
2022/11/07 06:33:52;;;;;;;6.75;4.50;;;12.20;78.60;;;;;;5052560;28;20116;-82
2022/11/07 06:36:18;;;;;;;7.68;4.78;;;12.10;78.60;;;;;;5051624;28;20136;-81
2022/11/07 06:38:44;;;;;;;5.63;4.25;;;12.20;78.70;;;;;;5052712;28;20531;-81
2022/11/07 06:41:13;;;;;;;7.20;4.18;;;12.20;77.80;;;;;;5053813;28;20025;-82
2022/11/07 06:43:39;;;;;;;5.53;3.88;;;12.20;78.10;;;;;;5053935;28;20334;-81
2022/11/07 06:46:08;;;;;;;6.90;3.65;;;12.30;77.60;;;;;;5053716;28;20021;-83
2022/11/07 06:48:34;;;;;;;5.82;3.72;;;12.30;78.00;;;;;;5052970;28;20056;-83
2022/11/07 06:51:01;;;;;;;6.63;4.20;;;12.30;77.90;;;;;;5052201;28;20075;-83
2022/11/07 06:53:27;;;;;;;7.88;3.78;;;12.40;77.10;;;;;;5053407;28;20046;-83
2022/11/07 06:55:54;;;;;;;5.03;3.60;;;12.40;77.20;;;;;;5053839;28;20017;-82
2022/11/07 06:58:20;;;;;;;7.85;3.25;;;12.50;77.00;;;;;;5068920;28;20036;-83
2022/11/07 07:00:47;;;;;;;4.70;3.42;;;12.50;76.70;;;;;;5048494;28;20071;-83
2022/11/07 07:03:13;;;;;;;5.28;3.33;;;12.50;77.10;;;;;;5041638;28;20473;-83
2022/11/07 07:05:38;;;;;;;4.75;3.03;;;12.50;76.80;;;;;;5051221;28;20047;-84
2022/11/07 07:08:06;;;;;;;8.18;3.42;;;12.60;76.80;;;;;;5053194;28;20560;-81
2022/11/07 07:10:38;;;;;;;6.18;3.17;;;12.60;76.70;;;;;;5052396;28;20112;-72
2022/11/07 07:13:03;;;;;;;5.40;3.30;;;12.70;76.70;;;;;;5053211;28;20028;-72
2022/11/07 07:15:31;;;;;;;5.45;3.20;;;12.70;76.70;;;;;;5039402;28;20484;-72
2022/11/07 07:18:00;;;;;;;4.90;3.05;;;12.70;76.50;;;;;;5039828;28;20538;-72
2022/11/07 07:20:26;;;;;;;3.88;2.58;;;12.80;76.40;;;;;;5048815;28;20346;-72
2022/11/07 07:22:52;;;;;;;4.15;3.08;;;12.80;76.20;;;;;;5043853;28;20488;-73
2022/11/07 07:25:17;;;;;;;3.92;3.05;;;12.80;75.30;;;;;;5051266;28;20064;-73
2022/11/07 07:27:43;;;;;;;4.28;2.80;;;12.80;74.60;;;;;;5052118;28;20108;-73
2022/11/07 07:30:09;;;;;;;4.13;2.80;;;12.90;75.00;;;;;;5049836;28;20037;-73
2022/11/07 07:32:35;;;;;;;3.60;2.90;;;12.80;75.30;;;;;;5052040;28;20037;-74
2022/11/07 07:35:01;;;;;;;5.07;2.80;;;12.90;74.90;;;;;;5048299;28;20029;-74
2022/11/07 07:37:27;;;;;;;3.75;2.60;;;13.00;74.20;;;;;;5051507;28;20033;-74
2022/11/07 07:39:52;;;;;;;4.18;2.90;;;13.00;74.80;;;;;;5051682;28;20154;-74
2022/11/07 07:42:18;;;;;;;4.47;2.83;;;13.00;74.70;;;;;;5052798;28;20048;-74
2022/11/07 07:44:44;;;;;;;3.78;2.83;;;13.10;74.50;;;;;;5052123;28;20044;-73
2022/11/07 07:47:09;;;;;;;3.47;2.80;;;13.20;74.50;;;;;;5052951;28;20041;-74
2022/11/07 07:49:35;;;;;;;4.90;2.80;;;13.30;74.20;;;;;;5051855;28;20072;-73
2022/11/07 07:52:01;;;;;;;4.25;2.80;;;13.30;74.20;;;;;;5052681;28;20037;-73
2022/11/07 07:54:26;;;;;;;6.63;3.15;;;13.40;74.10;;;;;;5052890;28;20458;-73
2022/11/07 07:56:52;;;;;;;5.80;3.00;;;13.40;73.80;;;;;;5052838;28;20075;-73
2022/11/07 07:59:18;;;;;;;6.20;2.53;;;13.40;73.10;;;;;;5051577;28;20047;-73
2022/11/07 08:01:43;;;;;;;4.85;3.30;;;13.50;73.00;;;;;;5051989;28;20470;-73
2022/11/07 08:04:09;;;;;;;4.75;3.15;;;13.40;72.50;;;;;;5051385;28;20029;-73
2022/11/07 08:06:36;;;;;;;5.00;2.83;;;13.40;72.90;;;;;;5050794;28;20067;-74
2022/11/07 08:09:03;;;;;;;2.80;2.30;;;13.40;73.20;;;;;;5048192;28;20041;-74
2022/11/07 08:11:29;;;;;;;5.05;3.08;;;13.40;72.70;;;;;;5046936;28;20036;-74
2022/11/07 08:13:54;;;;;;;2.88;2.40;;;13.40;72.80;;;;;;5052024;28;20029;-73
2022/11/07 08:16:20;;;;;;;5.30;2.33;;;13.40;72.90;;;;;;5050040;28;20105;-74
2022/11/07 08:18:46;;;;;;;3.53;2.88;;;13.50;72.90;;;;;;5048859;28;20082;-74
2022/11/07 08:21:13;;;;;;;2.55;2.20;;;13.60;72.30;;;;;;5049839;28;20020;-77
2022/11/07 08:23:38;;;;;;;3.00;2.20;;;13.60;72.90;;;;;;5051618;28;20033;-74
2022/11/07 08:26:04;;;;;;;6.07;2.78;;;13.70;72.00;;;;;;5048989;28;20036;-73
2022/11/07 08:28:34;;;;;;;3.15;2.10;;;13.70;72.40;;;;;;5051190;28;20037;-73
2022/11/07 08:31:08;;;;;;;3.08;2.25;;;13.90;72.10;;;;;;5050671;28;20033;-73
2022/11/07 08:33:35;;;;;;;6.55;2.65;;;14.00;72.50;;;;;;5050411;28;20408;-74
2022/11/07 08:36:02;;;;;;;4.95;3.03;;;14.00;72.70;;;;;;5049657;28;20036;-73
2022/11/07 08:38:30;;;;;;;4.15;2.72;;;14.20;71.60;;;;;;5050915;28;20465;-73
2022/11/07 08:40:56;;;;;;;4.88;2.75;;;14.20;72.10;;;;;;5050813;28;20021;-79
2022/11/07 08:43:22;;;;;;;5.25;2.70;;;14.30;72.00;;;;;;5051156;28;20033;-79
2022/11/07 08:45:49;;;;;;;4.55;2.92;;;14.40;72.20;;;;;;5050601;28;20371;-79
2022/11/07 08:48:16;;;;;;;2.55;2.13;;;14.50;71.00;;;;;;5049607;28;20037;-79
2022/11/07 08:50:42;;;;;;;5.40;3.42;;;14.40;71.70;;;;;;5050407;28;20064;-79
2022/11/07 08:53:08;;;;;;;4.50;2.65;;;14.30;71.30;;;;;;5050930;28;20061;-79
2022/11/07 08:55:35;;;;;;;4.25;2.60;;;14.40;71.10;;;;;;5049945;28;20032;-79
2022/11/07 08:58:03;;;;;;;4.68;2.83;;;14.50;71.70;;;;;;5052975;28;20029;-78
2022/11/07 09:00:29;;;;;;;4.35;2.60;;;15.10;70.30;;;;;;5049044;28;20017;-80
2022/11/07 09:02:55;;;;;;;3.30;2.50;;;14.80;69.60;;;;;;5045665;28;20025;-80
2022/11/07 09:05:21;;;;;;;4.35;2.63;;;14.90;70.10;;;;;;5050905;28;20064;-80
2022/11/07 09:07:47;;;;;;;4.78;2.70;;;14.90;70.50;;;;;;5053469;28;20076;-80
2022/11/07 09:10:13;;;;;;;3.83;2.22;;;15.10;70.70;;;;;;5052767;28;20433;-79
2022/11/07 09:12:46;;;;;;;3.17;1.77;;;15.50;69.40;;;;;;5044382;28;20025;-78
2022/11/07 09:15:13;;;;;;;3.05;1.85;;;15.60;70.50;;;;;;5055546;28;20552;-80
2022/11/07 09:17:38;;;;;;;4.22;2.25;;;15.90;68.80;;;;;;5052788;28;20021;-80
2022/11/07 09:20:05;;;;;;;4.32;1.45;;;16.10;67.50;;;;;;5053015;28;20027;-80
2022/11/07 09:22:30;;;;;;;5.60;2.00;;;16.30;67.70;;;;;;5054755;28;20465;-80
2022/11/07 09:24:56;;;;;;;4.35;2.50;;;16.40;64.30;;;;;;5054179;28;20028;-80
2022/11/07 09:27:21;;;;;;;3.35;1.90;;;16.30;65.20;;;;;;5053965;28;20071;-79
2022/11/07 09:29:47;;;;;;;5.30;2.03;;;16.30;64.80;;;;;;5054892;28;20103;-74
2022/11/07 09:32:13;;;;;;;5.18;2.22;;;16.30;65.40;;;;;;5055001;28;20024;-72
2022/11/07 09:34:38;;;;;;;2.33;1.52;;;16.40;61.90;;;;;;5054119;28;20037;-72
2022/11/07 09:37:04;;;;;;;4.93;1.77;;;16.40;62.80;;;;;;5052912;28;20476;-72
2022/11/07 09:39:30;;;;;;;2.85;1.58;;;16.60;75.60;;;;;;5053171;28;20037;-83
2022/11/07 09:42:20;;;;;;;3.75;1.77;;;16.80;74.80;;;;;;5054597;28;20025;-79
2022/11/07 09:44:55;;;;;;;2.90;1.50;;;17.00;66.80;;;;;;5054442;28;20049;-79
2022/11/07 09:47:38;;;;;;;4.03;1.90;;;17.10;66.70;;;;;;5052550;28;20053;-74
2022/11/07 09:50:29;;;;;;;3.45;1.48;;;17.20;63.40;;;;;;5051971;28;20029;-73
2022/11/07 09:53:03;;;;;;;2.60;1.10;;;;;;;;;;5053954;28;20029;-74
2022/11/07 09:55:38;;;;;;;3.35;0.95;;;17.60;72.50;;;;;;5053397;28;20416;-74
2022/11/07 09:58:14;;;;;;;3.35;1.80;;;;;;;;;;5053536;28;20037;-74
2022/11/07 10:00:40;;;;;;;2.17;1.58;;;17.70;70.40;;;;;;5052588;28;20029;-74
2022/11/07 10:03:08;;;;;;;2.78;1.63;;;;;;;;;;5054699;28;20029;-74
2022/11/07 10:06:13;;;;;;;1.40;1.13;;;17.80;58.80;;;;;;5052555;28;20103;-74
2022/11/07 10:08:58;;;;;;;2.78;1.10;;;;;;;;;;5050549;28;20409;-74
2022/11/07 10:11:54;;;;;;;2.38;1.33;;;18.40;61.40;;;;;;5051440;28;20052;-78
2022/11/07 10:14:29;;;;;;;2.40;1.30;;;18.80;61.40;;;;;;5051820;28;20036;-78
2022/11/07 10:17:18;;;;;;;3.13;1.63;;;19.20;60.50;;;;;;5050102;28;20499;-74
2022/11/07 10:19:54;;;;;;;6.00;1.67;;;19.40;59.30;;;;;;5047457;28;20056;-74
2022/11/07 10:22:27;;;;;;;1.67;1.20;;;;;;;;;;5055108;28;20286;-74
2022/11/07 10:25:30;;;;;;;4.38;1.42;;;19.90;58.50;;;;;;5057055;28;20036;-79
2022/11/07 10:28:17;;;;;;;1.98;1.15;;;20.00;58.10;;;;;;5063503;28;20031;-79
2022/11/07 10:30:47;;;;;;;3.05;1.52;;;20.30;58.50;;;;;;5073063;28;20086;-79
2022/11/07 10:33:33;;;;;;;3.83;1.48;;;20.50;58.30;;;;;;5068653;28;20031;-74
2022/11/07 10:36:15;;;;;;;5.30;1.80;;;20.70;57.60;;;;;;5060227;28;20025;-74
2022/11/07 10:38:41;;;;;;;2.47;1.67;;;20.90;57.40;;;;;;5053078;28;20033;-74
2022/11/07 10:41:17;;;;;;;2.67;1.95;;;21.10;57.20;;;;;;5049650;28;20103;-74
2022/11/07 10:43:48;;;;;;;6.07;2.13;;;21.30;56.40;;;;;;5054247;28;20132;-74
2022/11/07 10:46:21;;;;;;;5.50;2.70;;;21.50;55.90;;;;;;5051851;28;20021;-74
2022/11/07 10:48:55;;;;;;;4.28;2.10;;;21.60;55.70;;;;;;5051928;28;20029;-74
2022/11/07 10:51:41;;;;;;;4.28;2.78;;;21.80;52.60;;;;;;5043948;28;20548;-73
2022/11/07 10:54:17;;;;;;;6.72;3.00;;;21.80;54.20;;;;;;5050595;28;20029;-74
2022/11/07 10:57:05;;;;;;;5.65;3.13;;;21.90;54.40;;;;;;5050462;28;20029;-80
2022/11/07 10:59:33;;;;;;;5.68;3.00;;;22.00;54.10;;;;;;5050073;28;20029;-79
2022/11/07 11:02:00;;;;;;;5.63;3.63;;;22.10;54.60;;;;;;5049031;28;20063;-80
2022/11/07 11:04:31;;;;;;;5.95;3.83;;;22.30;52.60;;;;;;5049268;28;20029;-80
2022/11/07 11:07:03;;;;;;;8.50;4.88;;;22.90;52.20;;;;;;5049363;28;20039;-80
2022/11/07 11:09:31;;;;;;;7.75;4.85;;;22.40;52.30;;;;;;5053320;28;20508;-81
2022/11/07 11:11:57;;;;;;;8.35;4.80;;;22.20;50.50;;;;;;5052737;28;20084;-80
2022/11/07 11:14:23;;;;;;;6.43;3.97;;;22.00;52.90;;;;;;5052242;28;20025;-73
2022/11/07 11:16:55;;;;;;;7.13;3.47;;;22.00;49.60;;;;;;5052590;28;20024;-73
2022/11/07 11:19:29;;;;;;;8.05;4.80;;;22.10;53.50;;;;;;5050425;28;20401;-73
2022/11/07 11:21:57;;;;;;;8.77;5.30;;;22.30;53.50;;;;;;5051381;28;20385;-74
2022/11/07 11:24:37;;;;;;;11.35;6.57;;;22.80;53.30;;;;;;5051178;28;20029;-73
2022/11/07 11:27:16;;;;;;;7.80;4.85;;;23.60;48.50;;;;;;5038817;28;20037;-73
2022/11/07 11:29:44;;;;;;;11.23;6.30;;;24.40;48.90;;;;;;5047981;28;20393;-74
2022/11/07 11:32:29;;;;;;;10.45;6.55;;;25.50;47.70;;;;;;5044273;28;20033;-74
2022/11/07 11:35:21;;;;;;;9.77;5.45;;;26.70;43.50;;;;;;5042339;28;20082;-74
2022/11/07 11:37:56;;;;;;;7.43;5.35;;;27.30;41.00;;;;;;5032729;28;20037;-73
2022/11/07 11:40:23;;;;;;;9.43;6.00;;;27.40;40.10;;;;;;5039731;28;20025;-79
2022/11/07 11:43:03;;;;;;;8.40;6.00;;;28.30;42.20;;;;;;5041903;28;20465;-79
2022/11/07 11:45:57;;;;;;;9.38;6.57;;;29.20;41.00;;;;;;5047407;28;20351;-80
2022/11/07 11:48:35;;;;;;;9.25;6.07;;;30.00;38.80;;;;;;5028113;28;20103;-82
2022/11/07 11:51:18;;;;;;;8.52;5.80;;;30.50;37.10;;;;;;5032997;28;20029;-81
2022/11/07 11:53:50;;;;;;;8.90;6.10;;;31.00;37.80;;;;;;5032535;28;20041;-81
2022/11/07 11:56:29;;;;;;;8.88;6.50;;;31.40;37.40;;;;;;5036549;28;20032;-81
2022/11/07 11:59:34;;;;;;;8.98;6.30;;;31.70;36.60;;;;;;5036293;28;20044;-81
2022/11/07 12:02:15;;;;;;;9.95;6.47;;;32.00;35.40;;;;;;5040884;28;20041;-82
2022/11/07 12:05:11;;;;;;;9.80;7.03;;;32.20;35.20;;;;;;5040781;28;20060;-79
2022/11/07 12:08:12;;;;;;;9.52;6.40;;;32.20;35.10;;;;;;5043598;28;20121;-81
2022/11/07 12:11:00;;;;;;;9.45;5.95;;;32.20;35.00;;;;;;5040332;28;20064;-81
2022/11/07 12:13:45;;;;;;;10.73;5.85;;;32.30;35.00;;;;;;5051968;28;20039;-81
2022/11/07 12:16:33;;;;;;;7.82;5.50;;;32.20;34.70;;;;;;5050668;28;20031;-81
2022/11/07 12:19:08;;;;;;;8.82;5.97;;;32.10;34.70;;;;;;5047490;28;20061;-74
2022/11/07 12:21:57;;;;;;;7.90;6.38;;;31.80;34.50;;;;;;5052779;28;20029;-74
2022/11/07 12:24:28;;;;;;;10.52;7.40;;;31.30;34.00;;;;;;5032730;28;20030;-74
2022/11/07 12:26:57;;;;;;;9.93;7.65;;;30.80;34.60;;;;;;5038509;28;20052;-73
2022/11/07 12:29:22;;;;;;;10.45;6.93;;;30.30;34.70;;;;;;5052214;28;20108;-73
2022/11/07 12:32:11;;;;;;;9.30;6.68;;;30.10;35.40;;;;;;5055047;28;20079;-75
2022/11/07 12:35:02;;;;;;;9.45;6.88;;;29.90;35.50;;;;;;5055650;28;20025;-74
2022/11/07 12:37:42;;;;;;;9.23;6.65;;;30.10;36.40;;;;;;5070606;28;20025;-74
2022/11/07 12:40:29;;;;;;;13.05;7.95;;;30.30;35.90;;;;;;5054695;28;20029;-74
2022/11/07 12:43:06;;;;;;;8.55;6.25;;;30.30;35.40;;;;;;5055325;28;20036;-74
2022/11/07 12:45:50;;;;;;;9.80;6.50;;;30.30;35.10;;;;;;5055301;28;20056;-74
2022/11/07 12:48:28;;;;;;;9.77;6.70;;;30.30;34.60;;;;;;5055453;28;20468;-75
2022/11/07 12:51:24;;;;;;;9.55;6.30;;;30.30;34.90;;;;;;5055722;28;20033;-74
2022/11/07 12:53:59;;;;;;;9.48;7.00;;;30.30;34.70;;;;;;5046383;28;20048;-74
2022/11/07 12:56:31;;;;;;;7.90;5.70;;;30.40;34.50;;;;;;5052025;28;20074;-74
2022/11/07 12:59:00;;;;;;;10.65;7.07;;;30.30;33.90;;;;;;5044191;28;20029;-74
2022/11/07 13:01:35;;;;;;;10.93;6.35;;;29.20;34.30;;;;;;5050181;28;20024;-76
2022/11/07 13:04:22;;;;;;;9.40;7.03;;;28.40;35.50;;;;;;5049067;28;20033;-81
2022/11/07 13:06:58;;;;;;;19.27;7.13;;;27.60;36.30;;;;;;5059388;28;20032;-79
2022/11/07 13:09:30;;;;;;;8.70;5.90;;;27.00;37.20;;;;;;5054386;28;20106;-80
2022/11/07 13:12:14;;;;;;;11.05;6.75;;;26.40;38.00;;;;;;5059901;28;20036;-80